sensor_id;sensor_type;location;lat;lon;timestamp;P1;durP1;ratioP1;P2;durP2;ratioP2
54430;SDS011;40342;52.998;5.862;2023-07-16T00:00:07;6.95;;;2.70;;
54430;SDS011;40342;52.998;5.862;2023-07-16T00:02:34;5.47;;;3.08;;
54430;SDS011;40342;52.998;5.862;2023-07-16T00:05:01;6.78;;;2.63;;
54430;SDS011;40342;52.998;5.862;2023-07-16T00:07:26;7.30;;;2.67;;
54430;SDS011;40342;52.998;5.862;2023-07-16T00:09:52;7.78;;;2.45;;
54430;SDS011;40342;52.998;5.862;2023-07-16T00:12:17;10.32;;;2.78;;
54430;SDS011;40342;52.998;5.862;2023-07-16T00:14:43;7.50;;;2.72;;
54430;SDS011;40342;52.998;5.862;2023-07-16T00:17:08;6.13;;;2.55;;
54430;SDS011;40342;52.998;5.862;2023-07-16T00:19:34;8.52;;;3.25;;
54430;SDS011;40342;52.998;5.862;2023-07-16T00:21:59;13.65;;;3.03;;
54430;SDS011;40342;52.998;5.862;2023-07-16T00:24:25;8.02;;;2.40;;
54430;SDS011;40342;52.998;5.862;2023-07-16T00:26:52;10.00;;;3.08;;
54430;SDS011;40342;52.998;5.862;2023-07-16T00:29:17;10.38;;;2.80;;
54430;SDS011;40342;52.998;5.862;2023-07-16T00:31:43;12.25;;;2.55;;
54430;SDS011;40342;52.998;5.862;2023-07-16T00:34:08;9.13;;;3.10;;
54430;SDS011;40342;52.998;5.862;2023-07-16T00:36:34;7.53;;;2.97;;
54430;SDS011;40342;52.998;5.862;2023-07-16T00:38:59;7.30;;;2.45;;
54430;SDS011;40342;52.998;5.862;2023-07-16T00:41:25;11.07;;;2.42;;
54430;SDS011;40342;52.998;5.862;2023-07-16T00:43:50;12.10;;;2.92;;
54430;SDS011;40342;52.998;5.862;2023-07-16T00:46:16;8.82;;;2.63;;
54430;SDS011;40342;52.998;5.862;2023-07-16T00:48:42;11.77;;;2.72;;
54430;SDS011;40342;52.998;5.862;2023-07-16T00:51:08;9.50;;;2.78;;
54430;SDS011;40342;52.998;5.862;2023-07-16T00:53:34;11.40;;;3.55;;
54430;SDS011;40342;52.998;5.862;2023-07-16T00:56:00;8.90;;;2.80;;
54430;SDS011;40342;52.998;5.862;2023-07-16T00:58:26;8.05;;;2.83;;
54430;SDS011;40342;52.998;5.862;2023-07-16T01:00:51;9.32;;;2.88;;
54430;SDS011;40342;52.998;5.862;2023-07-16T01:03:17;9.35;;;3.15;;
54430;SDS011;40342;52.998;5.862;2023-07-16T01:08:11;10.48;;;2.95;;
54430;SDS011;40342;52.998;5.862;2023-07-16T01:10:40;9.05;;;2.78;;
54430;SDS011;40342;52.998;5.862;2023-07-16T01:13:07;8.75;;;3.55;;
54430;SDS011;40342;52.998;5.862;2023-07-16T01:15:33;5.97;;;2.30;;
54430;SDS011;40342;52.998;5.862;2023-07-16T01:17:58;6.53;;;2.80;;
54430;SDS011;40342;52.998;5.862;2023-07-16T01:20:24;10.60;;;2.83;;
54430;SDS011;40342;52.998;5.862;2023-07-16T01:26:02;12.57;;;2.80;;
54430;SDS011;40342;52.998;5.862;2023-07-16T01:31:38;8.23;;;2.67;;
54430;SDS011;40342;52.998;5.862;2023-07-16T01:34:05;6.05;;;2.40;;
54430;SDS011;40342;52.998;5.862;2023-07-16T01:36:31;10.07;;;2.90;;
54430;SDS011;40342;52.998;5.862;2023-07-16T01:38:59;8.30;;;2.30;;
54430;SDS011;40342;52.998;5.862;2023-07-16T01:41:24;4.80;;;2.00;;
54430;SDS011;40342;52.998;5.862;2023-07-16T01:43:50;9.90;;;2.35;;
54430;SDS011;40342;52.998;5.862;2023-07-16T01:46:16;9.18;;;2.60;;
54430;SDS011;40342;52.998;5.862;2023-07-16T01:48:42;8.88;;;2.67;;
54430;SDS011;40342;52.998;5.862;2023-07-16T01:51:08;4.88;;;2.25;;
54430;SDS011;40342;52.998;5.862;2023-07-16T01:53:34;5.65;;;2.33;;
54430;SDS011;40342;52.998;5.862;2023-07-16T01:56:02;6.05;;;2.05;;
54430;SDS011;40342;52.998;5.862;2023-07-16T01:58:28;7.25;;;2.22;;
54430;SDS011;40342;52.998;5.862;2023-07-16T02:00:54;6.35;;;2.42;;
54430;SDS011;40342;52.998;5.862;2023-07-16T02:03:19;7.72;;;2.60;;
54430;SDS011;40342;52.998;5.862;2023-07-16T02:05:45;6.90;;;2.80;;
54430;SDS011;40342;52.998;5.862;2023-07-16T02:08:10;9.85;;;2.83;;
54430;SDS011;40342;52.998;5.862;2023-07-16T02:10:36;6.85;;;2.90;;
54430;SDS011;40342;52.998;5.862;2023-07-16T02:13:01;9.55;;;2.67;;
54430;SDS011;40342;52.998;5.862;2023-07-16T02:15:27;9.45;;;3.47;;
54430;SDS011;40342;52.998;5.862;2023-07-16T02:17:52;6.85;;;2.58;;
54430;SDS011;40342;52.998;5.862;2023-07-16T02:20:18;9.50;;;2.67;;
54430;SDS011;40342;52.998;5.862;2023-07-16T02:22:44;8.43;;;3.10;;
54430;SDS011;40342;52.998;5.862;2023-07-16T02:25:09;8.20;;;2.75;;
54430;SDS011;40342;52.998;5.862;2023-07-16T02:27:35;8.82;;;3.22;;
54430;SDS011;40342;52.998;5.862;2023-07-16T02:30:00;9.25;;;3.10;;
54430;SDS011;40342;52.998;5.862;2023-07-16T02:32:26;9.70;;;3.53;;
54430;SDS011;40342;52.998;5.862;2023-07-16T02:34:51;8.20;;;3.22;;
54430;SDS011;40342;52.998;5.862;2023-07-16T02:37:17;7.53;;;3.28;;
54430;SDS011;40342;52.998;5.862;2023-07-16T02:39:43;7.93;;;2.83;;
54430;SDS011;40342;52.998;5.862;2023-07-16T02:42:10;9.93;;;3.15;;
54430;SDS011;40342;52.998;5.862;2023-07-16T02:44:35;9.80;;;3.90;;
54430;SDS011;40342;52.998;5.862;2023-07-16T02:47:08;8.27;;;3.83;;
54430;SDS011;40342;52.998;5.862;2023-07-16T02:49:34;8.35;;;3.38;;
54430;SDS011;40342;52.998;5.862;2023-07-16T02:51:59;12.63;;;3.83;;
54430;SDS011;40342;52.998;5.862;2023-07-16T02:54:25;8.13;;;3.80;;
54430;SDS011;40342;52.998;5.862;2023-07-16T02:56:50;8.55;;;3.28;;
54430;SDS011;40342;52.998;5.862;2023-07-16T02:59:16;7.78;;;3.45;;
54430;SDS011;40342;52.998;5.862;2023-07-16T03:01:41;9.57;;;3.47;;
54430;SDS011;40342;52.998;5.862;2023-07-16T03:04:07;7.63;;;3.70;;
54430;SDS011;40342;52.998;5.862;2023-07-16T03:06:32;10.30;;;3.70;;
54430;SDS011;40342;52.998;5.862;2023-07-16T03:08:58;8.07;;;3.30;;
54430;SDS011;40342;52.998;5.862;2023-07-16T03:11:23;9.35;;;3.67;;
54430;SDS011;40342;52.998;5.862;2023-07-16T03:13:49;7.95;;;4.03;;
54430;SDS011;40342;52.998;5.862;2023-07-16T03:16:14;8.57;;;3.25;;
54430;SDS011;40342;52.998;5.862;2023-07-16T03:18:40;8.68;;;3.50;;
54430;SDS011;40342;52.998;5.862;2023-07-16T03:21:05;7.30;;;3.25;;
54430;SDS011;40342;52.998;5.862;2023-07-16T03:23:31;6.07;;;3.47;;
54430;SDS011;40342;52.998;5.862;2023-07-16T03:25:57;7.85;;;3.72;;
54430;SDS011;40342;52.998;5.862;2023-07-16T03:28:22;9.00;;;3.60;;
54430;SDS011;40342;52.998;5.862;2023-07-16T03:30:48;10.52;;;3.92;;
54430;SDS011;40342;52.998;5.862;2023-07-16T03:33:15;7.93;;;3.72;;
54430;SDS011;40342;52.998;5.862;2023-07-16T03:35:44;8.05;;;3.60;;
54430;SDS011;40342;52.998;5.862;2023-07-16T03:38:11;9.82;;;4.53;;
54430;SDS011;40342;52.998;5.862;2023-07-16T03:40:37;8.18;;;4.45;;
54430;SDS011;40342;52.998;5.862;2023-07-16T03:43:03;10.82;;;4.07;;
54430;SDS011;40342;52.998;5.862;2023-07-16T03:45:29;11.60;;;4.90;;
54430;SDS011;40342;52.998;5.862;2023-07-16T03:47:54;9.18;;;3.97;;
54430;SDS011;40342;52.998;5.862;2023-07-16T03:50:20;12.27;;;4.90;;
54430;SDS011;40342;52.998;5.862;2023-07-16T03:52:46;9.95;;;4.55;;
54430;SDS011;40342;52.998;5.862;2023-07-16T03:55:12;12.35;;;4.78;;
54430;SDS011;40342;52.998;5.862;2023-07-16T03:57:38;10.05;;;4.22;;
54430;SDS011;40342;52.998;5.862;2023-07-16T04:00:03;12.75;;;5.00;;
54430;SDS011;40342;52.998;5.862;2023-07-16T04:02:32;9.18;;;4.60;;
54430;SDS011;40342;52.998;5.862;2023-07-16T04:04:57;8.73;;;4.50;;
54430;SDS011;40342;52.998;5.862;2023-07-16T04:07:23;10.93;;;5.03;;
54430;SDS011;40342;52.998;5.862;2023-07-16T04:09:48;8.07;;;4.38;;
54430;SDS011;40342;52.998;5.862;2023-07-16T04:12:14;7.53;;;4.32;;
54430;SDS011;40342;52.998;5.862;2023-07-16T04:14:39;11.15;;;4.75;;
54430;SDS011;40342;52.998;5.862;2023-07-16T04:17:05;12.05;;;4.75;;
54430;SDS011;40342;52.998;5.862;2023-07-16T04:19:31;10.88;;;4.63;;
54430;SDS011;40342;52.998;5.862;2023-07-16T04:21:56;9.98;;;4.78;;
54430;SDS011;40342;52.998;5.862;2023-07-16T04:24:22;9.98;;;4.88;;
54430;SDS011;40342;52.998;5.862;2023-07-16T04:26:48;11.65;;;4.80;;
54430;SDS011;40342;52.998;5.862;2023-07-16T04:29:14;8.98;;;4.80;;
54430;SDS011;40342;52.998;5.862;2023-07-16T04:31:40;14.30;;;5.35;;
54430;SDS011;40342;52.998;5.862;2023-07-16T04:34:06;9.75;;;4.25;;
54430;SDS011;40342;52.998;5.862;2023-07-16T04:36:31;11.85;;;4.75;;
54430;SDS011;40342;52.998;5.862;2023-07-16T04:38:57;8.65;;;4.20;;
54430;SDS011;40342;52.998;5.862;2023-07-16T04:41:22;10.68;;;4.97;;
54430;SDS011;40342;52.998;5.862;2023-07-16T04:43:48;9.68;;;5.07;;
54430;SDS011;40342;52.998;5.862;2023-07-16T04:46:14;9.48;;;4.70;;
54430;SDS011;40342;52.998;5.862;2023-07-16T04:48:41;12.25;;;6.15;;
54430;SDS011;40342;52.998;5.862;2023-07-16T04:51:07;12.07;;;5.50;;
54430;SDS011;40342;52.998;5.862;2023-07-16T04:53:32;11.60;;;5.05;;
54430;SDS011;40342;52.998;5.862;2023-07-16T04:55:58;11.05;;;4.90;;
54430;SDS011;40342;52.998;5.862;2023-07-16T04:58:23;13.68;;;4.85;;
54430;SDS011;40342;52.998;5.862;2023-07-16T05:00:49;12.00;;;4.85;;
54430;SDS011;40342;52.998;5.862;2023-07-16T05:03:15;9.85;;;4.82;;
54430;SDS011;40342;52.998;5.862;2023-07-16T05:05:40;9.88;;;4.93;;
54430;SDS011;40342;52.998;5.862;2023-07-16T05:08:06;7.78;;;4.75;;
54430;SDS011;40342;52.998;5.862;2023-07-16T05:10:32;12.52;;;5.03;;
54430;SDS011;40342;52.998;5.862;2023-07-16T05:12:58;11.65;;;4.88;;
54430;SDS011;40342;52.998;5.862;2023-07-16T05:15:23;13.13;;;4.68;;
54430;SDS011;40342;52.998;5.862;2023-07-16T05:17:49;10.05;;;4.68;;
54430;SDS011;40342;52.998;5.862;2023-07-16T05:20:15;10.13;;;4.45;;
54430;SDS011;40342;52.998;5.862;2023-07-16T05:22:40;8.43;;;4.07;;
54430;SDS011;40342;52.998;5.862;2023-07-16T05:25:06;9.55;;;4.05;;
54430;SDS011;40342;52.998;5.862;2023-07-16T05:27:32;9.73;;;3.92;;
54430;SDS011;40342;52.998;5.862;2023-07-16T05:29:57;10.13;;;4.03;;
54430;SDS011;40342;52.998;5.862;2023-07-16T05:32:23;11.88;;;4.50;;
54430;SDS011;40342;52.998;5.862;2023-07-16T05:34:48;12.38;;;4.10;;
54430;SDS011;40342;52.998;5.862;2023-07-16T05:37:14;8.60;;;4.43;;
54430;SDS011;40342;52.998;5.862;2023-07-16T05:39:40;8.73;;;4.40;;
54430;SDS011;40342;52.998;5.862;2023-07-16T05:42:05;9.10;;;4.20;;
54430;SDS011;40342;52.998;5.862;2023-07-16T05:44:31;10.38;;;4.03;;
54430;SDS011;40342;52.998;5.862;2023-07-16T05:46:56;13.80;;;4.78;;
54430;SDS011;40342;52.998;5.862;2023-07-16T05:49:23;8.13;;;4.15;;
54430;SDS011;40342;52.998;5.862;2023-07-16T05:51:50;7.45;;;3.85;;
54430;SDS011;40342;52.998;5.862;2023-07-16T05:54:16;10.40;;;5.05;;
54430;SDS011;40342;52.998;5.862;2023-07-16T05:56:42;9.95;;;4.75;;
54430;SDS011;40342;52.998;5.862;2023-07-16T05:59:07;8.75;;;4.35;;
54430;SDS011;40342;52.998;5.862;2023-07-16T06:01:33;9.77;;;4.90;;
54430;SDS011;40342;52.998;5.862;2023-07-16T06:03:58;9.98;;;4.18;;
54430;SDS011;40342;52.998;5.862;2023-07-16T06:06:24;11.75;;;5.22;;
54430;SDS011;40342;52.998;5.862;2023-07-16T06:08:51;12.13;;;4.95;;
54430;SDS011;40342;52.998;5.862;2023-07-16T06:11:17;10.07;;;4.47;;
54430;SDS011;40342;52.998;5.862;2023-07-16T06:13:42;10.02;;;4.60;;
54430;SDS011;40342;52.998;5.862;2023-07-16T06:16:08;9.82;;;4.88;;
54430;SDS011;40342;52.998;5.862;2023-07-16T06:18:33;9.55;;;4.97;;
54430;SDS011;40342;52.998;5.862;2023-07-16T06:20:59;13.50;;;5.18;;
54430;SDS011;40342;52.998;5.862;2023-07-16T06:23:24;9.10;;;4.68;;
54430;SDS011;40342;52.998;5.862;2023-07-16T06:25:53;11.43;;;5.65;;
54430;SDS011;40342;52.998;5.862;2023-07-16T06:28:22;9.40;;;4.72;;
54430;SDS011;40342;52.998;5.862;2023-07-16T06:30:49;9.50;;;4.90;;
54430;SDS011;40342;52.998;5.862;2023-07-16T06:33:16;7.95;;;4.80;;
54430;SDS011;40342;52.998;5.862;2023-07-16T06:35:43;13.18;;;4.90;;
54430;SDS011;40342;52.998;5.862;2023-07-16T06:38:10;10.55;;;4.95;;
54430;SDS011;40342;52.998;5.862;2023-07-16T06:40:36;9.93;;;4.75;;
54430;SDS011;40342;52.998;5.862;2023-07-16T06:43:01;7.85;;;4.65;;
54430;SDS011;40342;52.998;5.862;2023-07-16T06:45:27;10.55;;;5.10;;
54430;SDS011;40342;52.998;5.862;2023-07-16T06:47:52;10.90;;;4.55;;
54430;SDS011;40342;52.998;5.862;2023-07-16T06:50:18;12.35;;;4.93;;
54430;SDS011;40342;52.998;5.862;2023-07-16T06:52:44;9.10;;;4.50;;
54430;SDS011;40342;52.998;5.862;2023-07-16T06:55:09;8.90;;;4.50;;
54430;SDS011;40342;52.998;5.862;2023-07-16T06:57:35;11.02;;;5.25;;
54430;SDS011;40342;52.998;5.862;2023-07-16T07:00:00;10.02;;;4.32;;
54430;SDS011;40342;52.998;5.862;2023-07-16T07:02:26;10.45;;;4.45;;
54430;SDS011;40342;52.998;5.862;2023-07-16T07:04:52;10.38;;;4.50;;
54430;SDS011;40342;52.998;5.862;2023-07-16T07:07:17;7.72;;;4.80;;
54430;SDS011;40342;52.998;5.862;2023-07-16T07:09:43;8.43;;;4.18;;
54430;SDS011;40342;52.998;5.862;2023-07-16T07:12:12;11.63;;;4.47;;
54430;SDS011;40342;52.998;5.862;2023-07-16T07:14:37;11.48;;;4.88;;
54430;SDS011;40342;52.998;5.862;2023-07-16T07:17:03;9.57;;;4.43;;
54430;SDS011;40342;52.998;5.862;2023-07-16T07:19:29;9.82;;;4.55;;
54430;SDS011;40342;52.998;5.862;2023-07-16T07:21:54;7.68;;;4.40;;
54430;SDS011;40342;52.998;5.862;2023-07-16T07:24:20;9.48;;;4.45;;
54430;SDS011;40342;52.998;5.862;2023-07-16T07:26:45;6.97;;;4.82;;
54430;SDS011;40342;52.998;5.862;2023-07-16T07:29:11;12.70;;;4.82;;
54430;SDS011;40342;52.998;5.862;2023-07-16T07:31:36;8.65;;;4.47;;
54430;SDS011;40342;52.998;5.862;2023-07-16T07:34:02;6.82;;;4.60;;
54430;SDS011;40342;52.998;5.862;2023-07-16T07:36:28;9.13;;;4.28;;
54430;SDS011;40342;52.998;5.862;2023-07-16T07:38:54;8.50;;;4.53;;
54430;SDS011;40342;52.998;5.862;2023-07-16T07:41:19;9.93;;;4.57;;
54430;SDS011;40342;52.998;5.862;2023-07-16T07:43:45;7.88;;;5.00;;
54430;SDS011;40342;52.998;5.862;2023-07-16T07:46:10;9.40;;;4.75;;
54430;SDS011;40342;52.998;5.862;2023-07-16T07:48:36;11.00;;;4.82;;
54430;SDS011;40342;52.998;5.862;2023-07-16T07:51:02;10.65;;;5.18;;
54430;SDS011;40342;52.998;5.862;2023-07-16T07:53:28;9.68;;;5.00;;
54430;SDS011;40342;52.998;5.862;2023-07-16T07:55:53;14.07;;;5.97;;
54430;SDS011;40342;52.998;5.862;2023-07-16T07:58:19;11.77;;;5.40;;
54430;SDS011;40342;52.998;5.862;2023-07-16T08:00:45;13.23;;;5.47;;
54430;SDS011;40342;52.998;5.862;2023-07-16T08:03:10;8.88;;;5.03;;
54430;SDS011;40342;52.998;5.862;2023-07-16T08:05:36;14.48;;;5.60;;
54430;SDS011;40342;52.998;5.862;2023-07-16T08:08:01;13.38;;;5.70;;
54430;SDS011;40342;52.998;5.862;2023-07-16T08:10:27;7.80;;;4.85;;
54430;SDS011;40342;52.998;5.862;2023-07-16T08:12:53;8.10;;;5.28;;
54430;SDS011;40342;52.998;5.862;2023-07-16T08:15:18;9.95;;;5.45;;
54430;SDS011;40342;52.998;5.862;2023-07-16T08:17:44;13.60;;;5.38;;
54430;SDS011;40342;52.998;5.862;2023-07-16T08:20:11;12.80;;;5.50;;
54430;SDS011;40342;52.998;5.862;2023-07-16T08:22:37;8.73;;;5.30;;
54430;SDS011;40342;52.998;5.862;2023-07-16T08:25:03;11.13;;;5.40;;
54430;SDS011;40342;52.998;5.862;2023-07-16T08:27:30;12.38;;;5.32;;
54430;SDS011;40342;52.998;5.862;2023-07-16T08:29:55;11.45;;;5.40;;
54430;SDS011;40342;52.998;5.862;2023-07-16T08:32:21;10.50;;;5.10;;
54430;SDS011;40342;52.998;5.862;2023-07-16T08:34:47;9.20;;;4.97;;
54430;SDS011;40342;52.998;5.862;2023-07-16T08:37:13;8.40;;;4.40;;
54430;SDS011;40342;52.998;5.862;2023-07-16T08:39:39;12.93;;;5.38;;
54430;SDS011;40342;52.998;5.862;2023-07-16T08:42:05;8.98;;;4.63;;
54430;SDS011;40342;52.998;5.862;2023-07-16T08:44:31;10.02;;;4.50;;
54430;SDS011;40342;52.998;5.862;2023-07-16T08:46:57;9.43;;;4.30;;
54430;SDS011;40342;52.998;5.862;2023-07-16T08:49:23;12.20;;;4.75;;
54430;SDS011;40342;52.998;5.862;2023-07-16T08:51:50;7.35;;;4.32;;
54430;SDS011;40342;52.998;5.862;2023-07-16T08:54:19;8.23;;;4.22;;
54430;SDS011;40342;52.998;5.862;2023-07-16T08:56:44;9.95;;;4.40;;
54430;SDS011;40342;52.998;5.862;2023-07-16T08:59:12;9.30;;;4.38;;
54430;SDS011;40342;52.998;5.862;2023-07-16T09:01:39;11.15;;;4.65;;
54430;SDS011;40342;52.998;5.862;2023-07-16T09:04:05;10.65;;;4.60;;
54430;SDS011;40342;52.998;5.862;2023-07-16T09:06:30;11.95;;;4.80;;
54430;SDS011;40342;52.998;5.862;2023-07-16T09:08:56;10.85;;;5.00;;
54430;SDS011;40342;52.998;5.862;2023-07-16T09:11:21;12.43;;;4.03;;
54430;SDS011;40342;52.998;5.862;2023-07-16T09:13:50;10.93;;;4.70;;
54430;SDS011;40342;52.998;5.862;2023-07-16T09:16:17;9.45;;;4.68;;
54430;SDS011;40342;52.998;5.862;2023-07-16T09:18:43;7.35;;;4.18;;
54430;SDS011;40342;52.998;5.862;2023-07-16T09:21:10;10.35;;;4.10;;
54430;SDS011;40342;52.998;5.862;2023-07-16T09:23:36;9.05;;;4.10;;
54430;SDS011;40342;52.998;5.862;2023-07-16T09:26:02;7.90;;;4.07;;
54430;SDS011;40342;52.998;5.862;2023-07-16T09:28:29;9.45;;;4.13;;
54430;SDS011;40342;52.998;5.862;2023-07-16T09:30:56;8.65;;;4.30;;
54430;SDS011;40342;52.998;5.862;2023-07-16T09:33:28;9.63;;;4.07;;
54430;SDS011;40342;52.998;5.862;2023-07-16T09:35:53;7.45;;;4.15;;
54430;SDS011;40342;52.998;5.862;2023-07-16T09:38:19;11.02;;;4.38;;
54430;SDS011;40342;52.998;5.862;2023-07-16T09:40:46;6.00;;;3.92;;
54430;SDS011;40342;52.998;5.862;2023-07-16T09:43:12;7.45;;;4.00;;
54430;SDS011;40342;52.998;5.862;2023-07-16T09:45:38;10.30;;;4.20;;
54430;SDS011;40342;52.998;5.862;2023-07-16T09:48:05;8.73;;;4.57;;
54430;SDS011;40342;52.998;5.862;2023-07-16T09:50:34;10.65;;;4.38;;
54430;SDS011;40342;52.998;5.862;2023-07-16T09:53:00;8.40;;;4.22;;
54430;SDS011;40342;52.998;5.862;2023-07-16T09:55:28;11.13;;;4.75;;
54430;SDS011;40342;52.998;5.862;2023-07-16T09:57:57;7.72;;;4.38;;
54430;SDS011;40342;52.998;5.862;2023-07-16T10:00:24;9.98;;;4.10;;
54430;SDS011;40342;52.998;5.862;2023-07-16T10:02:51;8.18;;;4.40;;
54430;SDS011;40342;52.998;5.862;2023-07-16T10:05:18;10.07;;;5.00;;
54430;SDS011;40342;52.998;5.862;2023-07-16T10:07:51;7.75;;;4.82;;
54430;SDS011;40342;52.998;5.862;2023-07-16T10:10:19;8.85;;;5.03;;
54430;SDS011;40342;52.998;5.862;2023-07-16T10:12:55;14.10;;;5.20;;
54430;SDS011;40342;52.998;5.862;2023-07-16T10:15:26;10.50;;;4.97;;
54430;SDS011;40342;52.998;5.862;2023-07-16T10:17:53;7.47;;;3.90;;
54430;SDS011;40342;52.998;5.862;2023-07-16T10:20:35;8.10;;;3.10;;
54430;SDS011;40342;52.998;5.862;2023-07-16T10:23:14;8.48;;;4.00;;
54430;SDS011;40342;52.998;5.862;2023-07-16T10:25:41;7.38;;;3.35;;
54430;SDS011;40342;52.998;5.862;2023-07-16T10:28:26;5.82;;;3.33;;
54430;SDS011;40342;52.998;5.862;2023-07-16T10:30:52;6.53;;;3.50;;
54430;SDS011;40342;52.998;5.862;2023-07-16T10:33:18;8.52;;;3.53;;
54430;SDS011;40342;52.998;5.862;2023-07-16T10:35:45;8.27;;;3.80;;
54430;SDS011;40342;52.998;5.862;2023-07-16T10:38:11;7.88;;;4.38;;
54430;SDS011;40342;52.998;5.862;2023-07-16T10:40:40;8.43;;;4.53;;
54430;SDS011;40342;52.998;5.862;2023-07-16T10:43:07;4.45;;;3.38;;
54430;SDS011;40342;52.998;5.862;2023-07-16T10:45:33;11.93;;;3.63;;
54430;SDS011;40342;52.998;5.862;2023-07-16T10:47:58;10.88;;;3.20;;
54430;SDS011;40342;52.998;5.862;2023-07-16T10:50:24;6.47;;;3.35;;
54430;SDS011;40342;52.998;5.862;2023-07-16T10:52:50;5.88;;;3.70;;
54430;SDS011;40342;52.998;5.862;2023-07-16T10:55:22;6.37;;;3.60;;
54430;SDS011;40342;52.998;5.862;2023-07-16T10:57:49;9.38;;;4.00;;
54430;SDS011;40342;52.998;5.862;2023-07-16T11:00:16;9.55;;;4.63;;
54430;SDS011;40342;52.998;5.862;2023-07-16T11:02:43;6.95;;;3.78;;
54430;SDS011;40342;52.998;5.862;2023-07-16T11:05:10;6.95;;;3.22;;
54430;SDS011;40342;52.998;5.862;2023-07-16T11:07:36;7.38;;;3.03;;
54430;SDS011;40342;52.998;5.862;2023-07-16T11:10:02;7.57;;;2.88;;
54430;SDS011;40342;52.998;5.862;2023-07-16T11:12:28;8.70;;;3.00;;
54430;SDS011;40342;52.998;5.862;2023-07-16T11:14:54;9.52;;;2.97;;
54430;SDS011;40342;52.998;5.862;2023-07-16T11:17:21;5.28;;;2.53;;
54430;SDS011;40342;52.998;5.862;2023-07-16T11:19:50;8.63;;;2.63;;
54430;SDS011;40342;52.998;5.862;2023-07-16T11:22:16;8.38;;;3.00;;
54430;SDS011;40342;52.998;5.862;2023-07-16T11:24:46;8.55;;;2.50;;
54430;SDS011;40342;52.998;5.862;2023-07-16T11:27:16;10.00;;;3.38;;
54430;SDS011;40342;52.998;5.862;2023-07-16T11:29:46;7.35;;;2.70;;
54430;SDS011;40342;52.998;5.862;2023-07-16T11:32:14;4.72;;;2.28;;
54430;SDS011;40342;52.998;5.862;2023-07-16T11:34:51;9.80;;;2.85;;
54430;SDS011;40342;52.998;5.862;2023-07-16T11:37:18;8.75;;;3.53;;
54430;SDS011;40342;52.998;5.862;2023-07-16T11:39:46;10.50;;;3.25;;
54430;SDS011;40342;52.998;5.862;2023-07-16T11:42:12;7.43;;;2.83;;
54430;SDS011;40342;52.998;5.862;2023-07-16T11:44:38;9.85;;;3.53;;
54430;SDS011;40342;52.998;5.862;2023-07-16T11:47:03;16.23;;;3.63;;
54430;SDS011;40342;52.998;5.862;2023-07-16T11:49:29;9.63;;;3.50;;
54430;SDS011;40342;52.998;5.862;2023-07-16T11:51:56;9.18;;;3.35;;
54430;SDS011;40342;52.998;5.862;2023-07-16T11:54:22;14.30;;;4.07;;
54430;SDS011;40342;52.998;5.862;2023-07-16T11:56:47;11.30;;;3.40;;
54430;SDS011;40342;52.998;5.862;2023-07-16T11:59:13;13.07;;;3.42;;
54430;SDS011;40342;52.998;5.862;2023-07-16T12:01:41;11.50;;;3.42;;
54430;SDS011;40342;52.998;5.862;2023-07-16T12:04:07;7.82;;;2.70;;
54430;SDS011;40342;52.998;5.862;2023-07-16T12:06:33;9.73;;;3.50;;
54430;SDS011;40342;52.998;5.862;2023-07-16T12:08:58;8.10;;;3.17;;
54430;SDS011;40342;52.998;5.862;2023-07-16T12:11:24;8.77;;;3.30;;
54430;SDS011;40342;52.998;5.862;2023-07-16T12:13:49;12.20;;;3.20;;
54430;SDS011;40342;52.998;5.862;2023-07-16T12:16:15;9.82;;;3.33;;
54430;SDS011;40342;52.998;5.862;2023-07-16T12:18:40;11.73;;;3.50;;
54430;SDS011;40342;52.998;5.862;2023-07-16T12:21:06;10.40;;;3.53;;
54430;SDS011;40342;52.998;5.862;2023-07-16T12:23:31;8.35;;;2.85;;
54430;SDS011;40342;52.998;5.862;2023-07-16T12:25:57;11.80;;;3.65;;
54430;SDS011;40342;52.998;5.862;2023-07-16T12:28:23;11.70;;;3.60;;
54430;SDS011;40342;52.998;5.862;2023-07-16T12:30:48;11.85;;;3.17;;
54430;SDS011;40342;52.998;5.862;2023-07-16T12:33:14;10.15;;;3.33;;
54430;SDS011;40342;52.998;5.862;2023-07-16T12:35:39;10.48;;;2.85;;
54430;SDS011;40342;52.998;5.862;2023-07-16T12:38:05;14.98;;;3.80;;
54430;SDS011;40342;52.998;5.862;2023-07-16T12:40:30;12.50;;;2.70;;
54430;SDS011;40342;52.998;5.862;2023-07-16T12:42:56;10.82;;;2.80;;
54430;SDS011;40342;52.998;5.862;2023-07-16T12:45:22;11.77;;;2.72;;
54430;SDS011;40342;52.998;5.862;2023-07-16T12:47:47;9.25;;;2.70;;
54430;SDS011;40342;52.998;5.862;2023-07-16T12:50:13;10.55;;;2.90;;
54430;SDS011;40342;52.998;5.862;2023-07-16T12:52:38;10.25;;;2.47;;
54430;SDS011;40342;52.998;5.862;2023-07-16T12:55:04;10.88;;;2.70;;
54430;SDS011;40342;52.998;5.862;2023-07-16T12:57:30;8.90;;;2.42;;
54430;SDS011;40342;52.998;5.862;2023-07-16T12:59:57;8.50;;;2.70;;
54430;SDS011;40342;52.998;5.862;2023-07-16T13:02:22;10.55;;;2.00;;
54430;SDS011;40342;52.998;5.862;2023-07-16T13:04:48;7.50;;;2.38;;
54430;SDS011;40342;52.998;5.862;2023-07-16T13:07:13;7.45;;;2.17;;
54430;SDS011;40342;52.998;5.862;2023-07-16T13:09:39;8.00;;;2.25;;
54430;SDS011;40342;52.998;5.862;2023-07-16T13:12:05;13.70;;;2.72;;
54430;SDS011;40342;52.998;5.862;2023-07-16T13:14:31;9.57;;;2.33;;
54430;SDS011;40342;52.998;5.862;2023-07-16T13:16:56;7.53;;;2.35;;
54430;SDS011;40342;52.998;5.862;2023-07-16T13:19:22;11.75;;;2.63;;
54430;SDS011;40342;52.998;5.862;2023-07-16T13:21:47;11.45;;;2.70;;
54430;SDS011;40342;52.998;5.862;2023-07-16T13:24:13;10.50;;;3.00;;
54430;SDS011;40342;52.998;5.862;2023-07-16T13:26:38;9.38;;;2.28;;
54430;SDS011;40342;52.998;5.862;2023-07-16T13:29:04;13.77;;;2.85;;
54430;SDS011;40342;52.998;5.862;2023-07-16T13:31:30;12.57;;;2.42;;
54430;SDS011;40342;52.998;5.862;2023-07-16T13:33:55;15.32;;;3.38;;
54430;SDS011;40342;52.998;5.862;2023-07-16T13:36:21;11.20;;;2.17;;
54430;SDS011;40342;52.998;5.862;2023-07-16T13:38:46;10.00;;;1.98;;
54430;SDS011;40342;52.998;5.862;2023-07-16T13:41:12;10.02;;;2.60;;
54430;SDS011;40342;52.998;5.862;2023-07-16T13:43:38;14.27;;;2.40;;
54430;SDS011;40342;52.998;5.862;2023-07-16T13:46:03;12.20;;;2.17;;
54430;SDS011;40342;52.998;5.862;2023-07-16T13:48:29;9.93;;;2.55;;
54430;SDS011;40342;52.998;5.862;2023-07-16T13:50:54;12.75;;;2.97;;
54430;SDS011;40342;52.998;5.862;2023-07-16T13:53:20;10.35;;;2.90;;
54430;SDS011;40342;52.998;5.862;2023-07-16T13:55:45;13.75;;;2.40;;
54430;SDS011;40342;52.998;5.862;2023-07-16T13:58:11;6.28;;;1.80;;
54430;SDS011;40342;52.998;5.862;2023-07-16T14:00:37;10.18;;;2.20;;
54430;SDS011;40342;52.998;5.862;2023-07-16T14:03:02;9.20;;;2.45;;
54430;SDS011;40342;52.998;5.862;2023-07-16T14:05:28;7.95;;;2.13;;
54430;SDS011;40342;52.998;5.862;2023-07-16T14:07:54;10.18;;;1.98;;
54430;SDS011;40342;52.998;5.862;2023-07-16T14:10:19;8.85;;;2.63;;
54430;SDS011;40342;52.998;5.862;2023-07-16T14:12:45;8.13;;;2.33;;
54430;SDS011;40342;52.998;5.862;2023-07-16T14:15:10;8.02;;;1.98;;
54430;SDS011;40342;52.998;5.862;2023-07-16T14:17:36;6.85;;;1.60;;
54430;SDS011;40342;52.998;5.862;2023-07-16T14:20:02;7.43;;;2.00;;
54430;SDS011;40342;52.998;5.862;2023-07-16T14:22:28;5.30;;;1.70;;
54430;SDS011;40342;52.998;5.862;2023-07-16T14:24:54;6.20;;;1.60;;
54430;SDS011;40342;52.998;5.862;2023-07-16T14:27:20;8.43;;;1.70;;
54430;SDS011;40342;52.998;5.862;2023-07-16T14:29:46;6.47;;;1.98;;
54430;SDS011;40342;52.998;5.862;2023-07-16T14:32:11;8.93;;;2.20;;
54430;SDS011;40342;52.998;5.862;2023-07-16T14:34:38;8.57;;;2.13;;
54430;SDS011;40342;52.998;5.862;2023-07-16T14:37:03;8.57;;;1.95;;
54430;SDS011;40342;52.998;5.862;2023-07-16T14:39:29;8.00;;;2.28;;
54430;SDS011;40342;52.998;5.862;2023-07-16T14:41:55;9.18;;;2.22;;
54430;SDS011;40342;52.998;5.862;2023-07-16T14:44:20;7.05;;;2.10;;